DAON

Zenata – Messali El Hadj Airport

Tlemcen, Algeria
TAF DAON 132300Z 1400/1424 26018KT 8000 FEW026 SCT100 TEMPO 1400/1408 27020G35KT -RA BKN015 FEW026CB
Issued Valid From Valid To
Dec-13 @ 23:00 UTC
(4 hours ago)
Dec-14 @ 00:00 UTC
(3 hours ago)
Dec-15 @ 00:00 UTC
(in 21 hours)
Dec-14 @ 00:00 to Dec-15 @ 00:00
TAF DAON 132300Z 1400/1424 26018KT 8000 FEW026 SCT100
Wind Visibility Clouds
260° at 18 knots 7,998 meters
  • Few at 2,600' AGL
  • Scattered at 10,000' AGL
Temporary Dec-14 @ 00:00 to Dec-14 @ 08:00
TEMPO 1400/1408 27020G35KT -RA BKN015 FEW026CB
Wind Clouds Conditions
270° at 20 knots
 Gusting to 35 knots
  • Broken at 1,500' AGL
  • Few at 2,600' AGL
  • Light Rain
TAF DAON 132300Z 1400/1424 26018KT 8000 FEW026 SCT100 TEMPO 1400/1408 27020G35KT -RA BKN015 FEW026CB
Issued Dec-13 @ 23:00 UTC
(4 hours ago)
Valid From Dec-14 @ 00:00 UTC
(3 hours ago)
Valid To Dec-15 @ 00:00 UTC
(in 21 hours)
Dec-14 @ 00:00 - Dec-15 @ 00:00
Wind Visibility
260° at 18 knots 7,998 meters
Clouds
  • Few at 2,600' AGL
  • Scattered at 10,000' AGL
Temporary Dec-14 @ 00:00 - Dec-14 @ 08:00
Wind
270° at 20 knots
 Gusting to 35 knots
Clouds
  • Broken at 1,500' AGL
  • Few at 2,600' AGL
Conditions
  • Light Rain